createdAt,value
2024-04-07T00:00:02.393Z,1000.68
2024-04-07T00:01:02.407Z,1000.60
2024-04-07T00:02:02.368Z,1000.59
2024-04-07T00:03:02.383Z,1000.55
2024-04-07T00:04:02.344Z,1000.54
2024-04-07T00:05:02.320Z,1000.52
2024-04-07T00:06:02.350Z,1000.52
2024-04-07T00:07:02.389Z,1000.56
2024-04-07T00:08:02.292Z,1000.54
2024-04-07T00:09:02.296Z,1000.55
2024-04-07T00:10:02.292Z,1000.56
2024-04-07T00:11:02.283Z,1000.50
2024-04-07T00:12:03.215Z,1000.53
2024-04-07T00:13:02.315Z,1000.53
2024-04-07T00:14:02.380Z,1000.52
2024-04-07T00:15:02.242Z,1000.51
2024-04-07T00:16:02.227Z,1000.53
2024-04-07T00:17:02.218Z,1000.55
2024-04-07T00:18:02.187Z,1000.52
2024-04-07T00:19:02.239Z,1000.57
2024-04-07T00:20:02.223Z,1000.63
2024-04-07T00:21:02.178Z,1000.60
2024-04-07T00:22:02.169Z,1000.62
2024-04-07T00:23:02.168Z,1000.65
2024-04-07T00:24:02.141Z,1000.64
2024-04-07T00:25:02.151Z,1000.61
2024-04-07T00:26:02.125Z,1000.59
2024-04-07T00:27:02.091Z,1000.58
2024-04-07T00:28:02.064Z,1000.56
2024-04-07T00:29:02.081Z,1000.57
2024-04-07T00:30:02.062Z,1000.51
2024-04-07T00:31:02.064Z,1000.51
2024-04-07T00:32:02.044Z,1000.52
2024-04-07T00:33:02.056Z,1000.54
2024-04-07T00:34:02.024Z,1000.54
2024-04-07T00:35:02.020Z,1000.57
2024-04-07T00:36:02.010Z,1000.53
2024-04-07T00:37:02.029Z,1000.52
2024-04-07T00:38:01.967Z,1000.50
2024-04-07T00:39:01.970Z,1000.49
2024-04-07T00:40:01.975Z,1000.47
2024-04-07T00:41:01.968Z,1000.43
2024-04-07T00:42:01.946Z,1000.42
2024-04-07T00:43:01.971Z,1000.45
2024-04-07T00:44:01.900Z,1000.49
2024-04-07T00:45:01.885Z,1000.47
2024-04-07T00:46:01.872Z,1000.47
2024-04-07T00:47:01.867Z,1000.47
2024-04-07T00:48:01.863Z,1000.46
2024-04-07T00:49:01.934Z,1000.41
2024-04-07T00:50:01.846Z,1000.49
2024-04-07T00:51:01.816Z,1000.47
2024-04-07T00:52:01.811Z,1000.53
2024-04-07T00:53:01.834Z,1000.56
2024-04-07T00:54:01.829Z,1000.55
2024-04-07T00:55:02.201Z,1000.55
2024-04-07T00:56:01.778Z,1000.60
2024-04-07T00:57:01.838Z,1000.56
2024-04-07T00:58:01.750Z,1000.55
2024-04-07T00:59:01.740Z,1000.53
2024-04-07T01:00:01.739Z,1000.50
2024-04-07T01:01:01.759Z,1000.44
2024-04-07T01:02:01.710Z,1000.41
2024-04-07T01:03:01.709Z,1000.41
2024-04-07T01:04:01.664Z,1000.43
2024-04-07T01:05:01.757Z,1000.45
2024-04-07T01:06:01.660Z,1000.46
2024-04-07T01:07:01.717Z,1000.45
2024-04-07T01:08:01.636Z,1000.48
2024-04-07T01:09:01.635Z,1000.44
2024-04-07T01:10:01.607Z,1000.47
2024-04-07T01:11:01.607Z,1000.46
2024-04-07T01:12:01.584Z,1000.55
2024-04-07T01:13:02.583Z,1000.55
2024-04-07T01:14:01.583Z,1000.54
2024-04-07T01:15:01.579Z,1000.56
2024-04-07T01:16:01.534Z,1000.55
2024-04-07T01:17:01.528Z,1000.57
2024-04-07T01:18:01.523Z,1000.55
2024-04-07T01:19:01.538Z,1000.54
2024-04-07T01:20:01.495Z,1000.56
2024-04-07T01:21:01.502Z,1000.56
2024-04-07T01:22:01.472Z,1000.55
2024-04-07T01:23:01.473Z,1000.59
2024-04-07T01:24:01.466Z,1000.59
2024-04-07T01:25:01.495Z,1000.58
2024-04-07T01:26:01.452Z,1000.61
2024-04-07T01:27:01.459Z,1000.60
2024-04-07T01:28:01.397Z,1000.64
2024-04-07T01:29:01.408Z,1000.68
2024-04-07T01:30:01.392Z,1000.69
2024-04-07T01:31:01.442Z,1000.64
2024-04-07T01:32:01.355Z,1000.61
2024-04-07T01:33:01.362Z,1000.59
2024-04-07T01:34:01.340Z,1000.57
2024-04-07T01:35:01.341Z,1000.56
2024-04-07T01:36:01.339Z,1000.62
2024-04-07T01:37:01.313Z,1000.63
2024-04-07T01:38:01.302Z,1000.58
2024-04-07T01:39:01.287Z,1000.61
2024-04-07T01:40:01.310Z,1000.62
2024-04-07T01:41:01.296Z,1000.62
2024-04-07T01:42:01.254Z,1000.64
2024-04-07T01:43:01.270Z,1000.68
2024-04-07T01:44:01.239Z,1000.71
2024-04-07T01:45:01.254Z,1000.69
2024-04-07T01:46:01.217Z,1000.62
2024-04-07T01:47:01.194Z,1000.63
2024-04-07T01:48:01.263Z,1000.66
2024-04-07T01:49:01.238Z,1000.61
2024-04-07T01:50:01.200Z,1000.58
2024-04-07T01:51:01.166Z,1000.60
2024-04-07T01:52:01.201Z,1000.57
2024-04-07T01:53:01.187Z,1000.66
2024-04-07T01:54:01.141Z,1000.68
2024-04-07T01:55:01.227Z,1000.71
2024-04-07T01:56:01.093Z,1000.76
2024-04-07T01:57:01.121Z,1000.76
2024-04-07T01:58:01.099Z,1000.81
2024-04-07T01:59:01.066Z,1000.81
2024-04-07T02:00:01.049Z,1000.79
2024-04-07T02:01:01.179Z,1000.77
2024-04-07T02:02:01.034Z,1000.76
2024-04-07T02:03:01.025Z,1000.76
2024-04-07T02:04:01.038Z,1000.74
2024-04-07T02:05:01.015Z,1000.80
2024-04-07T02:06:00.981Z,1000.80
2024-04-07T02:07:01.035Z,1000.88
2024-04-07T02:08:00.961Z,1000.90
2024-04-07T02:09:00.944Z,1000.92
2024-04-07T02:10:01.988Z,1000.93
2024-04-07T02:11:00.996Z,1001.01
2024-04-07T02:12:01.040Z,1000.99
2024-04-07T02:13:00.981Z,1000.97
2024-04-07T02:14:00.908Z,1000.93
2024-04-07T02:15:00.899Z,1000.92
2024-04-07T02:16:00.897Z,1000.94
2024-04-07T02:17:00.859Z,1000.94
2024-04-07T02:18:00.934Z,1000.99
2024-04-07T02:19:00.857Z,1001.05
2024-04-07T02:20:00.854Z,1001.07
2024-04-07T02:21:00.831Z,1001.10
2024-04-07T02:22:00.824Z,1001.19
2024-04-07T02:23:00.814Z,1001.21
2024-04-07T02:24:00.786Z,1001.22
2024-04-07T02:25:00.809Z,1001.17
2024-04-07T02:26:00.762Z,1001.15
2024-04-07T02:27:00.772Z,1001.14
2024-04-07T02:28:00.740Z,1001.18
2024-04-07T02:29:00.738Z,1001.21
2024-04-07T02:30:00.727Z,1001.23
2024-04-07T02:31:00.788Z,1001.24
2024-04-07T02:32:00.689Z,1001.26
2024-04-07T02:33:00.691Z,1001.29
2024-04-07T02:34:00.678Z,1001.29
2024-04-07T02:35:00.674Z,1001.29
2024-04-07T02:36:00.681Z,1001.23
2024-04-07T02:37:00.708Z,1001.26
2024-04-07T02:38:00.652Z,1001.21
2024-04-07T02:39:00.671Z,1001.24
2024-04-07T02:40:00.611Z,1001.28
2024-04-07T02:41:00.628Z,1001.30
2024-04-07T02:42:00.609Z,1001.30
2024-04-07T02:43:00.615Z,1001.29
2024-04-07T02:44:00.572Z,1001.27
2024-04-07T02:45:00.664Z,1001.32
2024-04-07T02:46:00.593Z,1001.31
2024-04-07T02:47:00.542Z,1001.33
2024-04-07T02:48:00.537Z,1001.33
2024-04-07T02:49:00.581Z,1001.39
2024-04-07T02:50:00.563Z,1001.35
2024-04-07T02:51:00.556Z,1001.36
2024-04-07T02:52:00.539Z,1001.33
2024-04-07T02:53:00.481Z,1001.42
2024-04-07T02:54:00.552Z,1001.38
2024-04-07T02:55:00.502Z,1001.39
2024-04-07T02:56:00.437Z,1001.41
2024-04-07T02:57:00.430Z,1001.44
2024-04-07T02:58:00.429Z,1001.46
2024-04-07T02:59:00.422Z,1001.49
2024-04-07T03:00:00.397Z,1001.57
2024-04-07T03:01:00.455Z,1001.59
2024-04-07T03:02:00.378Z,1001.62
2024-04-07T03:03:00.359Z,1001.61
2024-04-07T03:04:00.355Z,1001.61
2024-04-07T03:05:00.365Z,1001.66
2024-04-07T03:06:00.360Z,1001.61
2024-04-07T03:07:00.977Z,1001.56
2024-04-07T03:08:00.326Z,1001.56
2024-04-07T03:09:01.296Z,1001.56
2024-04-07T03:10:00.298Z,1001.60
2024-04-07T03:11:00.290Z,1001.63
2024-04-07T03:12:00.268Z,1001.64
2024-04-07T03:13:00.304Z,1001.65
2024-04-07T03:14:00.239Z,1001.67
2024-04-07T03:15:00.244Z,1001.75
2024-04-07T03:16:00.224Z,1001.64
2024-04-07T03:17:01.284Z,1001.68
2024-04-07T03:18:00.196Z,1001.84
2024-04-07T03:19:00.254Z,1001.86
2024-04-07T03:20:00.197Z,1001.83
2024-04-07T03:21:00.201Z,1001.88
2024-04-07T03:22:00.140Z,1001.98
2024-04-07T03:23:00.191Z,1002.00
2024-04-07T03:24:00.133Z,1002.04
2024-04-07T03:25:00.169Z,1002.05
2024-04-07T03:26:00.120Z,1002.04
2024-04-07T03:27:00.108Z,1002.16
2024-04-07T03:28:00.115Z,1002.14
2024-04-07T03:29:00.094Z,1002.13
2024-04-07T03:30:00.052Z,1002.19
2024-04-07T03:31:00.086Z,1002.16
2024-04-07T03:32:00.056Z,1002.16
2024-04-07T03:33:00.026Z,1002.20
2024-04-07T03:34:00.003Z,1002.24
2024-04-07T03:35:00.003Z,1002.36
2024-04-07T03:36:00.004Z,1002.37
2024-04-07T03:37:00.023Z,1002.37
2024-04-07T03:37:59.996Z,1002.44
2024-04-07T03:38:59.980Z,1002.36
2024-04-07T03:39:59.952Z,1002.52
2024-04-07T03:41:00.076Z,1002.57
2024-04-07T03:41:59.937Z,1002.63
2024-04-07T03:42:59.980Z,1002.60
2024-04-07T03:43:59.898Z,1002.64
2024-04-07T03:44:59.902Z,1002.65
2024-04-07T03:45:59.887Z,1002.69
2024-04-07T03:46:59.879Z,1002.73
2024-04-07T03:47:59.865Z,1002.75
2024-04-07T03:49:00.055Z,1002.78
2024-04-07T03:49:59.842Z,1002.71
2024-04-07T03:50:59.853Z,1002.80
2024-04-07T03:51:59.820Z,1002.76
2024-04-07T03:52:59.810Z,1002.76
2024-04-07T03:53:59.792Z,1002.75
2024-04-07T03:54:59.995Z,1002.74
2024-04-07T03:55:59.792Z,1002.85
2024-04-07T03:56:59.785Z,1003.01
2024-04-07T03:57:59.761Z,1002.93
2024-04-07T03:58:59.767Z,1002.92
2024-04-07T03:59:59.730Z,1002.91
2024-04-07T04:01:00.724Z,1002.92
2024-04-07T04:01:59.720Z,1003.13
2024-04-07T04:02:59.694Z,1003.00
2024-04-07T04:03:59.688Z,1003.07
2024-04-07T04:04:59.709Z,1002.99
2024-04-07T04:05:59.684Z,1002.95
2024-04-07T04:06:59.676Z,1002.86
2024-04-07T04:08:00.609Z,1003.16
2024-04-07T04:08:59.645Z,1003.07
2024-04-07T04:09:59.655Z,1003.13
2024-04-07T04:10:59.636Z,1003.11
2024-04-07T04:11:59.660Z,1003.08
2024-04-07T04:12:59.631Z,1003.16
2024-04-07T04:13:59.578Z,1003.32
2024-04-07T04:14:59.561Z,1003.29
2024-04-07T04:15:59.546Z,1003.23
2024-04-07T04:16:59.555Z,1003.45
2024-04-07T04:17:59.531Z,1003.49
2024-04-07T04:18:59.575Z,1003.53
2024-04-07T04:19:59.510Z,1003.52
2024-04-07T04:20:59.514Z,1003.56
2024-04-07T04:21:59.491Z,1003.47
2024-04-07T04:22:59.470Z,1003.61
2024-04-07T04:23:59.476Z,1003.89
2024-04-07T04:24:59.490Z,1003.86
2024-04-07T04:26:00.410Z,1003.82
2024-04-07T04:26:59.443Z,1003.79
2024-04-07T04:27:59.436Z,1003.96
2024-04-07T04:28:59.410Z,1003.85
2024-04-07T04:29:59.395Z,1003.78
2024-04-07T04:30:59.405Z,1003.89
2024-04-07T04:31:59.386Z,1004.15
2024-04-07T04:32:59.382Z,1004.37
2024-04-07T04:33:59.355Z,1004.20
2024-04-07T04:34:59.349Z,1004.43
2024-04-07T04:35:59.339Z,1004.13
2024-04-07T04:36:59.364Z,1004.25
2024-04-07T04:37:59.340Z,1004.34
2024-04-07T04:38:59.313Z,1004.39
2024-04-07T04:39:59.312Z,1004.38
2024-04-07T04:40:59.274Z,1004.36
2024-04-07T04:41:59.307Z,1004.33
2024-04-07T04:42:59.293Z,1004.37
2024-04-07T04:43:59.269Z,1004.35
2024-04-07T04:44:59.240Z,1004.32
2024-04-07T04:45:59.218Z,1004.36
2024-04-07T04:46:59.223Z,1004.41
2024-04-07T04:47:59.206Z,1004.43
2024-04-07T04:48:59.292Z,1004.35
2024-04-07T04:49:59.174Z,1004.44
2024-04-07T04:50:59.178Z,1004.38
2024-04-07T04:51:59.153Z,1004.66
2024-04-07T04:52:59.185Z,1004.78
2024-04-07T04:53:59.150Z,1004.92
2024-04-07T04:54:59.124Z,1004.82
2024-04-07T04:55:59.130Z,1004.84
2024-04-07T04:56:59.099Z,1005.07
2024-04-07T04:57:59.096Z,1005.15
2024-04-07T04:58:59.080Z,1005.17
2024-04-07T05:00:00.252Z,1004.98
2024-04-07T05:01:00.022Z,1004.95
2024-04-07T05:01:59.134Z,1005.18
2024-04-07T05:02:59.027Z,1005.28
2024-04-07T05:03:59.045Z,1005.28
2024-04-07T05:04:59.020Z,1005.18
2024-04-07T05:05:58.997Z,1005.17
2024-04-07T05:06:59.018Z,1005.18
2024-04-07T05:07:58.985Z,1005.23
2024-04-07T05:08:59.960Z,1005.29
2024-04-07T05:09:58.982Z,1005.22
2024-04-07T05:10:58.973Z,1005.20
2024-04-07T05:11:58.948Z,1005.11
2024-04-07T05:12:58.915Z,1005.17
2024-04-07T05:13:58.932Z,1005.18
2024-04-07T05:14:58.880Z,1005.24
2024-04-07T05:15:58.896Z,1005.27
2024-04-07T05:16:58.866Z,1005.16
2024-04-07T05:17:58.864Z,1005.27
2024-04-07T05:18:59.054Z,1005.34
2024-04-07T05:19:58.855Z,1005.30
2024-04-07T05:20:58.838Z,1005.34
2024-04-07T05:21:58.824Z,1005.33
2024-04-07T05:22:58.815Z,1005.35
2024-04-07T05:23:59.233Z,1005.34
2024-04-07T05:24:58.793Z,1005.44
2024-04-07T05:25:58.786Z,1005.42
2024-04-07T05:26:59.443Z,1005.45
2024-04-07T05:27:58.780Z,1005.41
2024-04-07T05:28:59.424Z,1005.39
2024-04-07T05:29:58.733Z,1005.45
2024-04-07T05:30:58.748Z,1005.39
2024-04-07T05:31:59.687Z,1005.29
2024-04-07T05:32:59.463Z,1005.23
2024-04-07T05:33:58.718Z,1005.16
2024-04-07T05:34:58.758Z,1005.12
2024-04-07T05:35:59.638Z,1005.06
2024-04-07T05:36:58.691Z,1005.19
2024-04-07T05:37:58.685Z,1005.33
2024-04-07T05:39:02.802Z,1005.33
2024-04-07T05:40:01.478Z,1005.42
2024-04-07T05:40:58.667Z,1005.52
2024-04-07T05:41:58.625Z,1005.54
2024-04-07T05:42:58.608Z,1005.50
2024-04-07T05:43:58.796Z,1005.60
2024-04-07T05:44:58.583Z,1005.61
2024-04-07T05:45:58.580Z,1005.56
2024-04-07T05:46:58.597Z,1005.51
2024-04-07T05:47:59.513Z,1005.42
2024-04-07T05:48:58.621Z,1005.45
2024-04-07T05:50:02.181Z,1005.54
2024-04-07T05:51:00.605Z,1005.48
2024-04-07T05:51:58.586Z,1005.61
2024-04-07T05:52:58.522Z,1005.66
2024-04-07T05:53:58.505Z,1005.72
2024-04-07T05:54:58.457Z,1005.66
2024-04-07T05:55:59.918Z,1005.70
2024-04-07T05:56:58.439Z,1005.82
2024-04-07T05:57:58.444Z,1005.80
2024-04-07T05:58:58.474Z,1005.80
2024-04-07T05:59:58.419Z,1005.71
2024-04-07T06:00:58.439Z,1005.72
2024-04-07T06:01:59.367Z,1005.64
2024-04-07T06:02:58.406Z,1005.58
2024-04-07T06:03:58.374Z,1005.53
2024-04-07T06:04:59.326Z,1005.63
2024-04-07T06:05:58.357Z,1005.70
2024-04-07T06:06:59.711Z,1005.73
2024-04-07T06:07:58.736Z,1005.68
2024-04-07T06:08:58.525Z,1005.73
2024-04-07T06:09:58.659Z,1005.79
2024-04-07T06:10:58.701Z,1005.86
2024-04-07T06:11:58.397Z,1005.86
2024-04-07T06:12:58.327Z,1005.79
2024-04-07T06:13:58.523Z,1005.83
2024-04-07T06:14:58.312Z,1005.78
2024-04-07T06:15:58.249Z,1005.86
2024-04-07T06:16:58.246Z,1005.85
2024-04-07T06:17:58.950Z,1005.84
2024-04-07T06:18:58.210Z,1005.92
2024-04-07T06:19:58.216Z,1005.94
2024-04-07T06:20:58.201Z,1006.02
2024-04-07T06:21:58.178Z,1005.98
2024-04-07T06:22:58.174Z,1005.98
2024-04-07T06:23:58.143Z,1006.00
2024-04-07T06:24:58.163Z,1005.94
2024-04-07T06:25:58.220Z,1005.89
2024-04-07T06:26:58.120Z,1005.95
2024-04-07T06:27:58.103Z,1005.89
2024-04-07T06:28:58.103Z,1005.87
2024-04-07T06:29:58.101Z,1005.86
2024-04-07T06:30:58.074Z,1005.86
2024-04-07T06:31:58.112Z,1005.87
2024-04-07T06:32:58.057Z,1005.84
2024-04-07T06:33:58.110Z,1005.81
2024-04-07T06:34:58.109Z,1005.89
2024-04-07T06:35:58.031Z,1005.82
2024-04-07T06:36:58.023Z,1005.80
2024-04-07T06:37:58.102Z,1005.71
2024-04-07T06:38:57.975Z,1005.73
2024-04-07T06:39:57.995Z,1005.71
2024-04-07T06:40:58.024Z,1005.68
2024-04-07T06:41:57.960Z,1005.69
2024-04-07T06:42:57.929Z,1005.73
2024-04-07T06:43:57.982Z,1005.86
2024-04-07T06:44:57.954Z,1005.87
2024-04-07T06:45:57.904Z,1005.77
2024-04-07T06:46:57.930Z,1005.79
2024-04-07T06:47:57.900Z,1005.82
2024-04-07T06:48:57.879Z,1005.87
2024-04-07T06:49:57.945Z,1005.88
2024-04-07T06:50:57.992Z,1005.67
2024-04-07T06:51:57.862Z,1005.53
2024-04-07T06:52:57.918Z,1005.58
2024-04-07T06:53:57.812Z,1005.68
2024-04-07T06:54:57.808Z,1005.73
2024-04-07T06:55:57.870Z,1005.75
2024-04-07T06:56:57.824Z,1005.81
2024-04-07T06:57:57.775Z,1005.83
2024-04-07T06:58:57.832Z,1005.77
2024-04-07T06:59:57.761Z,1005.76
2024-04-07T07:00:57.737Z,1005.62
2024-04-07T07:01:57.785Z,1005.62
2024-04-07T07:02:57.722Z,1005.59
2024-04-07T07:03:57.705Z,1005.72
2024-04-07T07:04:57.760Z,1005.59
2024-04-07T07:05:57.684Z,1005.48
2024-04-07T07:06:57.687Z,1005.48
2024-04-07T07:07:57.751Z,1005.52
2024-04-07T07:08:57.661Z,1005.69
2024-04-07T07:09:57.649Z,1005.84
2024-04-07T07:10:57.661Z,1005.79
2024-04-07T07:11:57.636Z,1005.85
2024-04-07T07:12:57.621Z,1005.82
2024-04-07T07:13:57.679Z,1005.88
2024-04-07T07:14:57.593Z,1005.95
2024-04-07T07:15:57.591Z,1006.00
2024-04-07T07:16:57.633Z,1006.00
2024-04-07T07:17:57.564Z,1005.93
2024-04-07T07:18:57.531Z,1005.87
2024-04-07T07:19:57.594Z,1005.85
2024-04-07T07:20:57.525Z,1005.85
2024-04-07T07:21:57.521Z,1005.82
2024-04-07T07:22:57.578Z,1005.85
2024-04-07T07:23:57.499Z,1005.94
2024-04-07T07:24:57.473Z,1005.90
2024-04-07T07:25:57.527Z,1005.97
2024-04-07T07:26:57.469Z,1006.02
2024-04-07T07:27:57.439Z,1006.03
2024-04-07T07:28:57.479Z,1006.02
2024-04-07T07:29:57.413Z,1006.05
2024-04-07T07:30:57.422Z,1006.12
2024-04-07T07:31:57.467Z,1006.11
2024-04-07T07:32:57.386Z,1006.05
2024-04-07T07:33:57.386Z,1006.08
2024-04-07T07:34:57.384Z,1006.07
2024-04-07T07:35:57.355Z,1006.10
2024-04-07T07:36:57.345Z,1006.11
2024-04-07T07:37:57.404Z,1006.10
2024-04-07T07:38:57.328Z,1006.11
2024-04-07T07:39:57.305Z,1006.05
2024-04-07T07:40:57.387Z,1005.99
2024-04-07T07:41:57.274Z,1005.95
2024-04-07T07:42:57.284Z,1006.00
2024-04-07T07:43:57.273Z,1006.04
2024-04-07T07:44:57.258Z,1006.10
2024-04-07T07:45:57.272Z,1006.12
2024-04-07T07:46:57.262Z,1006.17
2024-04-07T07:47:57.220Z,1006.20
2024-04-07T07:48:57.206Z,1006.23
2024-04-07T07:49:57.217Z,1006.23
2024-04-07T07:50:57.203Z,1006.23
2024-04-07T07:51:57.218Z,1006.18
2024-04-07T07:52:57.231Z,1006.16
2024-04-07T07:53:57.171Z,1006.15
2024-04-07T07:54:57.147Z,1006.22
2024-04-07T07:55:57.173Z,1006.23
2024-04-07T07:56:57.122Z,1006.16
2024-04-07T07:57:57.117Z,1006.22
2024-04-07T07:58:58.100Z,1006.26
2024-04-07T08:00:05.231Z,1006.31
2024-04-07T08:00:58.091Z,1006.33
2024-04-07T08:01:57.111Z,1006.33
2024-04-07T08:02:57.067Z,1006.30
2024-04-07T08:03:57.057Z,1006.29
2024-04-07T08:04:58.018Z,1006.24
2024-04-07T08:05:57.039Z,1006.23
2024-04-07T08:06:57.038Z,1006.34
2024-04-07T08:07:57.010Z,1006.37
2024-04-07T08:08:56.994Z,1006.35
2024-04-07T08:09:56.972Z,1006.29
2024-04-07T08:10:57.100Z,1006.36
2024-04-07T08:11:56.963Z,1006.31
2024-04-07T08:12:56.938Z,1006.38
2024-04-07T08:13:56.952Z,1006.45
2024-04-07T08:14:56.933Z,1006.42
2024-04-07T08:15:57.862Z,1006.40
2024-04-07T08:16:57.871Z,1006.44
2024-04-07T08:17:56.903Z,1006.45
2024-04-07T08:18:56.900Z,1006.46
2024-04-07T08:19:56.906Z,1006.43
2024-04-07T08:20:56.855Z,1006.48
2024-04-07T08:21:56.880Z,1006.40
2024-04-07T08:22:56.873Z,1006.36
2024-04-07T08:23:56.816Z,1006.44
2024-04-07T08:24:56.832Z,1006.42
2024-04-07T08:25:56.876Z,1006.41
2024-04-07T08:26:56.790Z,1006.47
2024-04-07T08:27:56.804Z,1006.41
2024-04-07T08:28:56.810Z,1006.48
2024-04-07T08:29:56.780Z,1006.52
2024-04-07T08:30:56.749Z,1006.46
2024-04-07T08:31:56.812Z,1006.49
2024-04-07T08:32:57.691Z,1006.45
2024-04-07T08:33:56.711Z,1006.52
2024-04-07T08:34:56.727Z,1006.46
2024-04-07T08:35:56.703Z,1006.44
2024-04-07T08:36:56.691Z,1006.47
2024-04-07T08:37:56.715Z,1006.52
2024-04-07T08:38:56.661Z,1006.52
2024-04-07T08:39:56.675Z,1006.61
2024-04-07T08:40:56.667Z,1006.51
2024-04-07T08:41:56.630Z,1006.56
2024-04-07T08:42:56.619Z,1006.71
2024-04-07T08:43:58.854Z,1006.73
2024-04-07T08:44:56.596Z,1006.69
2024-04-07T08:45:57.546Z,1006.72
2024-04-07T08:46:56.607Z,1006.64
2024-04-07T08:47:56.594Z,1006.62
2024-04-07T08:48:56.551Z,1006.69
2024-04-07T08:49:56.560Z,1006.72
2024-04-07T08:50:56.552Z,1006.71
2024-04-07T08:51:57.505Z,1006.61
2024-04-07T08:52:56.530Z,1006.68
2024-04-07T08:53:56.484Z,1006.73
2024-04-07T08:54:56.538Z,1006.69
2024-04-07T08:55:56.538Z,1006.67
2024-04-07T08:56:56.483Z,1006.73
2024-04-07T08:57:56.445Z,1006.78
2024-04-07T08:58:56.495Z,1006.69
2024-04-07T08:59:56.427Z,1006.73
2024-04-07T09:00:56.409Z,1006.75
2024-04-07T09:01:56.876Z,1006.88
2024-04-07T09:02:56.403Z,1006.82
2024-04-07T09:03:56.375Z,1006.78
2024-04-07T09:04:56.846Z,1006.80
2024-04-07T09:05:56.388Z,1006.85
2024-04-07T09:06:56.376Z,1006.74
2024-04-07T09:07:56.384Z,1006.69
2024-04-07T09:08:56.346Z,1006.72
2024-04-07T09:09:56.309Z,1006.67
2024-04-07T09:10:56.416Z,1006.73
2024-04-07T09:11:56.326Z,1006.78
2024-04-07T09:12:56.267Z,1006.68
2024-04-07T09:13:56.328Z,1006.76
2024-04-07T09:14:56.268Z,1006.77
2024-04-07T09:15:56.263Z,1006.80
2024-04-07T09:16:56.302Z,1006.67
2024-04-07T09:17:56.223Z,1006.66
2024-04-07T09:18:58.558Z,1006.71
2024-04-07T09:19:56.246Z,1006.73
2024-04-07T09:20:56.186Z,1006.67
2024-04-07T09:21:56.190Z,1006.80
2024-04-07T09:22:56.246Z,1006.79
2024-04-07T09:23:56.168Z,1006.77
2024-04-07T09:24:56.151Z,1006.76
2024-04-07T09:25:56.153Z,1006.70
2024-04-07T09:26:56.138Z,1006.72
2024-04-07T09:27:56.104Z,1006.69
2024-04-07T09:28:56.325Z,1006.79
2024-04-07T09:29:56.125Z,1006.76
2024-04-07T09:30:56.096Z,1006.80
2024-04-07T09:31:56.109Z,1006.85
2024-04-07T09:32:56.080Z,1006.74
2024-04-07T09:33:57.075Z,1006.88
2024-04-07T09:34:56.281Z,1006.95
2024-04-07T09:35:56.034Z,1006.89
2024-04-07T09:36:56.989Z,1006.79
2024-04-07T09:37:56.997Z,1006.83
2024-04-07T09:38:56.016Z,1006.77
2024-04-07T09:39:55.982Z,1006.77
2024-04-07T09:40:56.053Z,1006.73
2024-04-07T09:41:56.679Z,1006.79
2024-04-07T09:42:55.968Z,1006.95
2024-04-07T09:43:56.021Z,1006.77
2024-04-07T09:44:55.937Z,1006.74
2024-04-07T09:45:55.910Z,1006.67
2024-04-07T09:46:56.013Z,1006.77
2024-04-07T09:47:55.912Z,1006.96
2024-04-07T09:48:55.877Z,1006.74
2024-04-07T09:49:55.869Z,1006.68
2024-04-07T09:50:55.952Z,1006.93
2024-04-07T09:51:55.866Z,1006.90
2024-04-07T09:52:56.003Z,1006.89
2024-04-07T09:53:55.846Z,1006.91
2024-04-07T09:54:55.852Z,1006.75
2024-04-07T09:55:55.830Z,1006.75
2024-04-07T09:56:55.831Z,1006.69
2024-04-07T09:57:55.796Z,1006.60
2024-04-07T09:58:55.818Z,1006.68
2024-04-07T09:59:55.796Z,1006.62
2024-04-07T10:00:55.781Z,1006.62
2024-04-07T10:01:55.731Z,1006.80
2024-04-07T10:02:55.746Z,1006.61
2024-04-07T10:04:09.435Z,1006.57
2024-04-07T10:04:55.719Z,1006.74
2024-04-07T10:05:57.461Z,1006.70
2024-04-07T10:06:55.719Z,1006.69
2024-04-07T10:07:55.673Z,1006.66
2024-04-07T10:08:55.745Z,1006.70
2024-04-07T10:09:55.678Z,1006.78
2024-04-07T10:11:04.461Z,1006.68
2024-04-07T10:11:56.648Z,1006.57
2024-04-07T10:12:55.657Z,1006.67
2024-04-07T10:13:55.632Z,1006.60
2024-04-07T10:14:55.714Z,1006.52
2024-04-07T10:15:55.613Z,1006.61
2024-04-07T10:16:55.636Z,1006.51
2024-04-07T10:17:55.597Z,1006.57
2024-04-07T10:18:55.721Z,1006.65
2024-04-07T10:19:55.695Z,1006.78
2024-04-07T10:20:55.617Z,1006.67
2024-04-07T10:21:55.611Z,1006.56
2024-04-07T10:22:55.530Z,1006.50
2024-04-07T10:23:55.514Z,1006.46
2024-04-07T10:24:55.516Z,1006.46
2024-04-07T10:25:55.492Z,1006.47
2024-04-07T10:26:55.518Z,1006.30
2024-04-07T10:27:55.497Z,1006.49
2024-04-07T10:28:55.451Z,1006.40
2024-04-07T10:29:55.482Z,1006.44
2024-04-07T10:30:55.425Z,1006.32
2024-04-07T10:31:55.454Z,1006.38
2024-04-07T10:32:55.477Z,1006.41
2024-04-07T10:33:55.411Z,1006.32
2024-04-07T10:34:55.396Z,1006.26
2024-04-07T10:35:55.412Z,1006.30
2024-04-07T10:36:55.357Z,1006.30
2024-04-07T10:37:56.301Z,1006.43
2024-04-07T10:38:55.372Z,1006.42
2024-04-07T10:39:55.391Z,1006.33
2024-04-07T10:40:55.310Z,1006.26
2024-04-07T10:41:55.327Z,1006.31
2024-04-07T10:42:55.299Z,1006.24
2024-04-07T10:43:55.300Z,1006.20
2024-04-07T10:44:55.268Z,1006.35
2024-04-07T10:45:55.316Z,1006.21
2024-04-07T10:46:55.301Z,1006.27
2024-04-07T10:47:55.240Z,1006.38
2024-04-07T10:48:55.254Z,1006.27
2024-04-07T10:49:55.242Z,1006.32
2024-04-07T10:50:55.235Z,1006.28
2024-04-07T10:51:55.251Z,1006.26
2024-04-07T10:52:55.207Z,1006.29
2024-04-07T10:53:55.173Z,1006.29
2024-04-07T10:54:55.186Z,1006.24
2024-04-07T10:55:55.156Z,1006.24
2024-04-07T10:56:55.156Z,1006.31
2024-04-07T10:57:55.178Z,1006.26
2024-04-07T10:58:55.147Z,1006.31
2024-04-07T10:59:55.913Z,1006.20
2024-04-07T11:00:55.127Z,1006.30
2024-04-07T11:01:55.117Z,1006.21
2024-04-07T11:02:55.079Z,1006.25
2024-04-07T11:03:55.147Z,1006.29
2024-04-07T11:04:55.075Z,1006.19
2024-04-07T11:05:55.073Z,1006.11
2024-04-07T11:06:55.036Z,1006.09
2024-04-07T11:07:55.026Z,1006.14
2024-04-07T11:08:55.046Z,1006.33
2024-04-07T11:09:55.162Z,1006.28
2024-04-07T11:10:55.006Z,1006.33
2024-04-07T11:11:54.996Z,1006.38
2024-04-07T11:12:54.995Z,1006.42
2024-04-07T11:13:54.957Z,1006.53
2024-04-07T11:14:54.989Z,1006.47
2024-04-07T11:15:54.987Z,1006.28
2024-04-07T11:16:54.953Z,1006.27
2024-04-07T11:17:54.945Z,1006.24
2024-04-07T11:18:54.936Z,1006.24
2024-04-07T11:19:54.918Z,1006.23
2024-04-07T11:20:54.895Z,1006.30
2024-04-07T11:21:54.903Z,1006.26
2024-04-07T11:22:54.896Z,1006.25
2024-04-07T11:23:54.916Z,1006.28
2024-04-07T11:24:54.846Z,1006.20
2024-04-07T11:26:05.035Z,1006.19
2024-04-07T11:27:08.489Z,1006.19
2024-04-07T11:27:54.812Z,1006.29
2024-04-07T11:29:03.706Z,1006.17
2024-04-07T11:29:54.780Z,1006.15
2024-04-07T11:31:04.930Z,1006.10
2024-04-07T11:32:07.491Z,1006.23
2024-04-07T11:32:55.769Z,1006.29
2024-04-07T11:33:54.770Z,1006.23
2024-04-07T11:34:54.794Z,1006.27
2024-04-07T11:35:54.781Z,1006.17
2024-04-07T11:36:54.757Z,1006.18
2024-04-07T11:37:54.895Z,1006.47
2024-04-07T11:38:54.735Z,1006.31
2024-04-07T11:39:57.224Z,1006.29
2024-04-07T11:40:54.691Z,1006.32
2024-04-07T11:41:54.674Z,1006.23
2024-04-07T11:42:55.634Z,1006.32
2024-04-07T11:43:54.661Z,1006.40
2024-04-07T11:44:54.670Z,1006.29
2024-04-07T11:45:54.605Z,1006.19
2024-04-07T11:46:54.627Z,1006.24
2024-04-07T11:47:54.583Z,1006.27
2024-04-07T11:48:54.611Z,1006.29
2024-04-07T11:49:54.553Z,1006.31
2024-04-07T11:50:54.617Z,1006.27
2024-04-07T11:51:54.565Z,1006.29
2024-04-07T11:52:54.530Z,1006.37
2024-04-07T11:53:54.548Z,1006.30
2024-04-07T11:54:54.521Z,1006.23
2024-04-07T11:55:54.522Z,1006.25
2024-04-07T11:56:54.522Z,1006.17
2024-04-07T11:57:54.487Z,1006.29
2024-04-07T11:58:54.497Z,1006.21
2024-04-07T11:59:54.477Z,1006.27
2024-04-07T12:00:54.447Z,1006.31
2024-04-07T12:01:54.465Z,1006.25
2024-04-07T12:02:54.744Z,1006.13
2024-04-07T12:03:54.427Z,1006.14
2024-04-07T12:04:54.435Z,1006.09